Time;durP1;ratioP1;P1;durP2;ratioP2;P2;SDS_P1;SDS_P2;PMS_P1;PMS_P2;Temp;Humidity;BMP_temperature;BMP_pressure;BME280_temperature;BME280_humidity;BME280_pressure;Samples;Min_cycle;Max_cycle;Signal;HPM_P1;HPM_P2
2023/07/24 00:01:44;;;;;;;11.77;8.15;;;;;;;;;;5151503;27;20202;-62
2023/07/24 00:04:11;;;;;;;16.33;8.52;;;;;;;;;;5153992;27;20203;-62
2023/07/24 00:06:37;;;;;;;11.98;7.82;;;;;;;;;;5155168;27;20505;-62
2023/07/24 00:09:05;;;;;;;10.13;8.00;;;;;;;;;;5153639;27;20217;-62
2023/07/24 00:11:31;;;;;;;8.50;7.38;;;;;;;;;;5151693;27;20198;-62
2023/07/24 00:13:57;;;;;;;9.52;7.68;;;;;;;;;;5151976;27;20275;-62
2023/07/24 00:16:23;;;;;;;9.50;7.28;;;;;;;;;;5155511;27;20397;-62
2023/07/24 00:18:49;;;;;;;8.23;7.03;;;;;;;;;;5155038;27;20430;-62
2023/07/24 00:21:16;;;;;;;11.20;7.60;;;;;;;;;;5152139;27;20420;-62
2023/07/24 00:23:42;;;;;;;7.45;6.65;;;;;;;;;;5151372;27;20206;-62
2023/07/24 00:26:10;;;;;;;11.25;7.35;;;;;;;;;;5153374;27;20223;-62
2023/07/24 00:28:36;;;;;;;9.65;6.85;;;;;;;;;;5157685;27;20259;-62
2023/07/24 00:31:02;;;;;;;13.43;7.07;;;;;;;;;;5157976;27;20300;-62
2023/07/24 00:33:28;;;;;;;9.98;7.53;;;;;;;;;;5155409;27;20205;-62
2023/07/24 00:35:56;;;;;;;8.30;7.05;;;;;;;;;;5155517;27;20198;-62
2023/07/24 00:38:22;;;;;;;9.32;7.57;;;;;;;;;;5146971;27;20190;-62
2023/07/24 00:40:48;;;;;;;11.18;7.13;;;;;;;;;;5155544;27;20202;-62
2023/07/24 00:43:16;;;;;;;9.43;6.70;;;;;;;;;;5157914;27;20202;-62
2023/07/24 00:45:42;;;;;;;11.48;7.38;;;;;;;;;;5159264;27;20201;-61
2023/07/24 00:48:09;;;;;;;9.15;7.28;;;;;;;;;;5156766;27;20255;-62
2023/07/24 00:50:36;;;;;;;8.77;7.13;;;;;;;;;;5155148;27;20199;-62
2023/07/24 00:53:02;;;;;;;10.25;7.22;;;;;;;;;;5155574;27;20439;-62
2023/07/24 00:55:29;;;;;;;10.93;7.53;;;;;;;;;;5158581;27;20205;-62
2023/07/24 00:57:55;;;;;;;7.85;6.65;;;;;;;;;;5158728;27;20235;-62
2023/07/24 01:00:23;;;;;;;9.05;7.30;;;;;;;;;;5146470;27;20426;-62
2023/07/24 01:02:49;;;;;;;10.18;7.18;;;;;;;;;;5154818;27;20498;-62
2023/07/24 01:05:17;;;;;;;7.85;6.65;;;;;;;;;;5157492;27;20202;-62
2023/07/24 01:07:43;;;;;;;8.93;7.18;;;;;;;;;;5158250;27;20250;-62
2023/07/24 01:10:10;;;;;;;9.73;7.97;;;;;;;;;;5156827;27;20221;-62
2023/07/24 01:12:39;;;;;;;12.77;8.02;;;;;;;;;;5154768;27;20206;-61
2023/07/24 01:15:08;;;;;;;11.27;7.47;;;;;;;;;;5155801;27;20198;-62
2023/07/24 01:17:39;;;;;;;11.43;7.53;;;;;;;;;;5158166;27;20260;-62
2023/07/24 01:20:09;;;;;;;9.25;7.63;;;;;;;;;;5156812;27;20546;-62
2023/07/24 01:22:40;;;;;;;12.32;8.13;;;;;;;;;;5154295;27;20207;-62
2023/07/24 01:25:11;;;;;;;9.65;7.45;;;;;;;;;;5155772;27;20198;-62
2023/07/24 01:27:42;;;;;;;10.20;7.55;;;;;;;;;;5158118;27;20221;-62
2023/07/24 01:30:09;;;;;;;11.48;8.48;;;;;;;;;;5156381;27;20222;-62
2023/07/24 01:32:35;;;;;;;9.10;7.88;;;;;;;;;;5154011;27;20513;-62
2023/07/24 01:35:01;;;;;;;13.45;8.18;;;;;;;;;;5154583;27;20506;-62
2023/07/24 01:37:28;;;;;;;12.68;7.95;;;;;;;;;;5157677;27;20203;-62
2023/07/24 01:39:56;;;;;;;13.07;7.57;;;;;;;;;;5157312;27;20425;-62
2023/07/24 01:42:22;;;;;;;10.45;7.72;;;;;;;;;;5154159;27;20236;-62
2023/07/24 01:44:53;;;;;;;10.68;7.95;;;;;;;;;;5154270;27;20205;-62
2023/07/24 01:47:19;;;;;;;10.02;7.68;;;;;;;;;;5156633;27;20265;-62
2023/07/24 01:49:45;;;;;;;12.25;7.63;;;;;;;;;;5157843;27;20213;-62
2023/07/24 01:52:12;;;;;;;10.77;7.72;;;;;;;;;;5155421;27;20206;-62
2023/07/24 01:54:38;;;;;;;9.13;7.80;;;;;;;;;;5153927;27;20206;-62
2023/07/24 01:57:05;;;;;;;10.35;6.82;;;;;;;;;;5154373;27;20220;-62
2023/07/24 01:59:31;;;;;;;8.65;7.40;;;;;;;;;;5157329;27;20193;-62
2023/07/24 02:01:58;;;;;;;8.90;7.40;;;;;;;;;;5157088;27;20198;-62
2023/07/24 02:04:25;;;;;;;9.93;7.78;;;;;;;;;;5153653;27;20198;-62
2023/07/24 02:06:51;;;;;;;8.63;7.20;;;;;;;;;;5154003;27;20205;-62
2023/07/24 02:09:18;;;;;;;9.27;7.95;;;;;;;;;;5156161;27;20229;-62
2023/07/24 02:11:45;;;;;;;12.52;8.05;;;;;;;;;;5157025;27;20242;-62
2023/07/24 02:14:12;;;;;;;10.15;8.10;;;;;;;;;;5155729;27;20205;-62
2023/07/24 02:16:38;;;;;;;11.27;7.95;;;;;;;;;;5153490;27;20199;-62
2023/07/24 02:19:06;;;;;;;9.48;8.02;;;;;;;;;;5154118;27;20329;-62
2023/07/24 02:21:32;;;;;;;11.43;7.93;;;;;;;;;;5156882;27;20198;-62
2023/07/24 02:23:58;;;;;;;9.57;7.35;;;;;;;;;;5157558;27;20197;-62
2023/07/24 02:26:25;;;;;;;11.35;7.90;;;;;;;;;;5153431;27;20525;-62
2023/07/24 02:28:51;;;;;;;8.55;7.32;;;;;;;;;;5153217;27;20271;-62
2023/07/24 02:31:17;;;;;;;13.10;7.63;;;;;;;;;;5155157;27;20435;-62
2023/07/24 02:33:43;;;;;;;9.25;7.45;;;;;;;;;;5156994;27;20198;-62
2023/07/24 02:36:11;;;;;;;10.73;7.97;;;;;;;;;;5155638;27;20424;-62
2023/07/24 02:38:37;;;;;;;9.82;7.70;;;;;;;;;;5153152;27;20498;-62
2023/07/24 02:41:04;;;;;;;9.95;7.38;;;;;;;;;;5153176;27;20198;-62
2023/07/24 02:43:30;;;;;;;12.45;8.50;;;;;;;;;;5156443;27;20198;-62
2023/07/24 02:46:00;;;;;;;11.05;7.80;;;;;;;;;;5156454;27;20190;-62
2023/07/24 02:48:27;;;;;;;12.88;8.07;;;;;;;;;;5153214;27;20255;-62
2023/07/24 02:50:53;;;;;;;11.70;8.13;;;;;;;;;;5152037;27;20267;-62
2023/07/24 02:53:21;;;;;;;12.93;7.68;;;;;;;;;;5155112;27;20243;-62
2023/07/24 02:55:48;;;;;;;10.57;7.80;;;;;;;;;;5156123;27;20221;-62
2023/07/24 02:58:14;;;;;;;9.40;7.57;;;;;;;;;;5154756;27;20239;-62
2023/07/24 03:00:40;;;;;;;10.48;7.63;;;;;;;;;;5149225;27;20206;-62
2023/07/24 03:03:06;;;;;;;12.10;7.82;;;;;;;;;;5155638;27;20216;-62
2023/07/24 03:05:34;;;;;;;8.98;7.28;;;;;;;;;;5152683;27;20194;-62
2023/07/24 03:08:01;;;;;;;8.40;7.18;;;;;;;;;;5152680;27;20199;-61
2023/07/24 03:10:28;;;;;;;10.27;8.05;;;;;;;;;;5155498;27;20213;-62
2023/07/24 03:12:54;;;;;;;11.93;8.20;;;;;;;;;;5155780;27;20349;-62
2023/07/24 03:15:21;;;;;;;10.63;7.47;;;;;;;;;;5153350;27;20198;-62
2023/07/24 03:17:47;;;;;;;8.40;7.22;;;;;;;;;;5152530;27;20501;-62
2023/07/24 03:20:15;;;;;;;10.27;7.82;;;;;;;;;;5153709;27;20213;-62
2023/07/24 03:22:41;;;;;;;11.00;7.47;;;;;;;;;;5155735;27;20194;-62
2023/07/24 03:25:08;;;;;;;8.05;7.22;;;;;;;;;;5155383;27;20497;-62
2023/07/24 03:27:35;;;;;;;9.90;7.63;;;;;;;;;;5152089;27;20214;-62
2023/07/24 03:30:02;;;;;;;10.45;7.78;;;;;;;;;;5152203;27;20526;-62
2023/07/24 03:32:28;;;;;;;11.10;7.55;;;;;;;;;;5155065;27;20201;-62
2023/07/24 03:34:54;;;;;;;11.25;7.82;;;;;;;;;;5155597;27;20201;-61
2023/07/24 03:37:21;;;;;;;9.93;7.60;;;;;;;;;;5150209;27;20194;-62
2023/07/24 03:39:47;;;;;;;8.30;6.85;;;;;;;;;;5155565;27;20205;-61
2023/07/24 03:42:25;;;;;;;11.02;7.43;;;;;;;;;;5154031;27;20205;-62
2023/07/24 03:44:52;;;;;;;9.43;7.45;;;;;;;;;;5151951;27;20194;-62
2023/07/24 03:47:18;;;;;;;10.10;7.22;;;;;;;;;;5153678;27;20194;-62
2023/07/24 03:49:45;;;;;;;9.43;7.57;;;;;;;;;;5155386;27;20214;-62
2023/07/24 03:52:11;;;;;;;10.32;7.32;;;;;;;;;;5154404;27;20498;-61
2023/07/24 03:54:38;;;;;;;9.23;7.90;;;;;;;;;;5151635;27;20546;-62
2023/07/24 03:57:04;;;;;;;13.50;8.40;;;;;;;;;;5151930;27;20376;-62
2023/07/24 03:59:31;;;;;;;11.95;7.95;;;;;;;;;;5155086;27;20214;-62
2023/07/24 04:01:58;;;;;;;9.63;7.78;;;;;;;;;;5154940;27;20505;-62
2023/07/24 04:04:24;;;;;;;11.13;8.10;;;;;;;;;;5153010;27;20197;-62
2023/07/24 04:06:51;;;;;;;11.73;7.50;;;;;;;;;;5151796;27;20239;-62
2023/07/24 04:09:17;;;;;;;12.18;8.35;;;;;;;;;;5152790;27;20259;-62
2023/07/24 04:11:44;;;;;;;9.88;7.93;;;;;;;;;;5155098;27;20205;-62
2023/07/24 04:14:10;;;;;;;10.25;8.00;;;;;;;;;;5154779;27;20195;-62
2023/07/24 04:16:36;;;;;;;9.93;7.82;;;;;;;;;;5151708;27;20194;-62
2023/07/24 04:19:04;;;;;;;10.02;7.78;;;;;;;;;;5151631;27;20218;-61
2023/07/24 04:21:30;;;;;;;10.52;8.05;;;;;;;;;;5154438;27;20400;-61
2023/07/24 04:23:57;;;;;;;9.68;7.55;;;;;;;;;;5154952;27;20194;-61
2023/07/24 04:26:23;;;;;;;11.65;8.10;;;;;;;;;;5153186;27;20201;-61
2023/07/24 04:28:49;;;;;;;9.70;7.85;;;;;;;;;;5151444;27;20214;-61
2023/07/24 04:31:15;;;;;;;10.82;7.88;;;;;;;;;;5152131;27;20269;-61
2023/07/24 04:33:42;;;;;;;12.02;7.60;;;;;;;;;;5155248;27;20195;-61
2023/07/24 04:36:09;;;;;;;13.20;7.53;;;;;;;;;;5154937;27;20230;-62
2023/07/24 04:38:35;;;;;;;8.90;7.15;;;;;;;;;;5142964;27;20232;-62
2023/07/24 04:41:02;;;;;;;10.40;7.78;;;;;;;;;;5151475;27;20236;-62
2023/07/24 04:43:28;;;;;;;9.48;7.10;;;;;;;;;;5153748;27;20205;-62
2023/07/24 04:45:54;;;;;;;9.75;8.02;;;;;;;;;;5155002;27;20234;-62
2023/07/24 04:48:21;;;;;;;8.50;7.70;;;;;;;;;;5153341;27;20216;-62
2023/07/24 04:50:47;;;;;;;9.00;7.18;;;;;;;;;;5151337;27;20214;-62
2023/07/24 04:53:15;;;;;;;8.23;7.00;;;;;;;;;;5151270;27;20203;-62
2023/07/24 04:55:41;;;;;;;9.93;7.90;;;;;;;;;;5154909;27;20208;-62
2023/07/24 04:58:07;;;;;;;10.70;7.70;;;;;;;;;;5154821;27;20250;-62
2023/07/24 05:00:33;;;;;;;9.50;7.50;;;;;;;;;;5151475;27;20194;-62
2023/07/24 05:02:59;;;;;;;10.10;7.93;;;;;;;;;;5150925;27;20493;-62
2023/07/24 05:05:26;;;;;;;11.45;7.95;;;;;;;;;;5153292;27;20225;-62
2023/07/24 05:07:52;;;;;;;11.75;8.05;;;;;;;;;;5154699;27;20193;-62
2023/07/24 05:10:20;;;;;;;8.68;7.47;;;;;;;;;;5153490;27;20465;-62
2023/07/24 05:12:46;;;;;;;10.90;8.00;;;;;;;;;;5151008;27;20202;-62
2023/07/24 05:15:12;;;;;;;13.65;7.80;;;;;;;;;;5154418;27;20201;-62
2023/07/24 05:17:38;;;;;;;12.45;8.40;;;;;;;;;;5158186;27;20197;-62
2023/07/24 05:20:05;;;;;;;12.13;8.20;;;;;;;;;;5158113;27;20193;-62
2023/07/24 05:22:31;;;;;;;11.85;8.30;;;;;;;;;;5155194;27;20202;-62
2023/07/24 05:24:57;;;;;;;11.60;8.30;;;;;;;;;;5154743;27;20365;-62
2023/07/24 05:27:24;;;;;;;10.65;8.70;;;;;;;;;;5156097;27;20323;-63
2023/07/24 05:29:51;;;;;;;12.10;7.80;;;;;;;;;;5158144;27;20220;-63
2023/07/24 05:32:17;;;;;;;13.23;8.55;;;;;;;;;;5156992;27;20194;-63
2023/07/24 05:34:43;;;;;;;12.77;8.77;;;;;;;;;;5154362;27;20194;-63
2023/07/24 05:37:09;;;;;;;9.95;8.25;;;;;;;;;;5154631;27;20194;-63
2023/07/24 05:39:36;;;;;;;11.52;8.50;;;;;;;;;;5154524;27;20367;-62
2023/07/24 05:42:02;;;;;;;10.45;8.38;;;;;;;;;;5153974;27;20201;-62
2023/07/24 05:44:29;;;;;;;13.88;8.48;;;;;;;;;;5156510;27;20429;-62
2023/07/24 05:46:56;;;;;;;13.25;8.10;;;;;;;;;;5157902;27;20217;-62
2023/07/24 05:49:22;;;;;;;12.70;8.18;;;;;;;;;;5156042;27;20194;-62
2023/07/24 05:51:48;;;;;;;12.43;8.48;;;;;;;;;;5154027;27;20202;-62
2023/07/24 05:54:14;;;;;;;14.27;8.23;;;;;;;;;;5154262;27;20230;-62
2023/07/24 05:56:41;;;;;;;10.00;8.02;;;;;;;;;;5157539;27;20203;-62
2023/07/24 05:59:07;;;;;;;10.35;7.82;;;;;;;;;;5157523;27;20388;-61
2023/07/24 06:01:34;;;;;;;11.32;8.57;;;;;;;;;;5157129;27;20213;-61
2023/07/24 06:04:01;;;;;;;11.38;8.43;;;;;;;;;;5157369;27;20193;-61
2023/07/24 06:06:28;;;;;;;11.60;8.18;;;;;;;;;;5155568;27;20252;-61
2023/07/24 06:08:54;;;;;;;10.70;8.77;;;;;;;;;;5153883;27;20229;-62
2023/07/24 06:11:20;;;;;;;15.60;8.07;;;;;;;;;;5154587;27;20247;-61
2023/07/24 06:13:46;;;;;;;12.85;8.73;;;;;;;;;;5158532;27;20193;-61
2023/07/24 06:16:13;;;;;;;11.90;8.23;;;;;;;;;;5157175;27;20202;-62
2023/07/24 06:18:42;;;;;;;12.85;8.18;;;;;;;;;;5145026;27;20214;-62
2023/07/24 06:21:08;;;;;;;10.57;7.63;;;;;;;;;;5153371;27;20257;-62
2023/07/24 06:23:35;;;;;;;12.10;8.35;;;;;;;;;;5156115;27;20205;-62
2023/07/24 06:26:01;;;;;;;12.48;8.45;;;;;;;;;;5156852;27;20194;-61
2023/07/24 06:28:28;;;;;;;12.23;8.45;;;;;;;;;;5155064;27;20230;-61
2023/07/24 06:30:55;;;;;;;12.23;8.35;;;;;;;;;;5153156;27;20214;-56
2023/07/24 06:33:22;;;;;;;12.10;8.52;;;;;;;;;;5132738;27;20274;-57
2023/07/24 06:35:50;;;;;;;10.00;7.63;;;;;;;;;;5152702;27;20210;-56
2023/07/24 06:38:16;;;;;;;12.13;8.18;;;;;;;;;;5147966;27;20206;-56
2023/07/24 06:40:42;;;;;;;10.32;8.18;;;;;;;;;;5142173;27;20199;-58
2023/07/24 06:43:09;;;;;;;11.95;8.30;;;;;;;;;;5135346;27;20232;-55
2023/07/24 06:45:35;;;;;;;12.90;7.70;;;;;;;;;;5147201;27;20217;-55
2023/07/24 06:48:01;;;;;;;13.27;8.23;;;;;;;;;;5144184;27;20210;-56
2023/07/24 06:50:27;;;;;;;10.40;8.02;;;;;;;;;;5141715;27;20226;-56
2023/07/24 06:52:55;;;;;;;11.70;8.32;;;;;;;;;;5143074;27;20243;-60
2023/07/24 06:55:21;;;;;;;12.82;8.70;;;;;;;;;;5139054;27;20217;-59
2023/07/24 06:57:48;;;;;;;12.23;8.85;;;;;;;;;;5139487;27;20210;-59
2023/07/24 07:00:15;;;;;;;11.07;8.18;;;;;;;;;;5146520;27;20212;-59
2023/07/24 07:02:41;;;;;;;10.60;8.45;;;;;;;;;;5150508;27;20205;-59
2023/07/24 07:05:07;;;;;;;12.00;8.88;;;;;;;;;;5146395;27;20206;-60
2023/07/24 07:07:33;;;;;;;10.90;8.45;;;;;;;;;;5147895;27;20210;-59
2023/07/24 07:10:01;;;;;;;10.85;7.97;;;;;;;;;;5141780;27;20226;-59
2023/07/24 07:12:28;;;;;;;10.07;8.15;;;;;;;;;;5139057;27;20464;-59
2023/07/24 07:14:54;;;;;;;10.75;8.38;;;;;;;;;;5150549;27;20210;-59
2023/07/24 07:17:20;;;;;;;14.23;8.35;;;;;;;;;;5148172;27;20209;-60
2023/07/24 07:19:47;;;;;;;10.23;7.93;;;;;;;;;;5141646;27;20206;-59
2023/07/24 07:22:13;;;;;;;10.40;8.38;;;;;;;;;;5142654;27;20207;-59
2023/07/24 07:24:39;;;;;;;10.93;8.20;;;;;;;;;;5146525;27;20209;-59
2023/07/24 07:27:07;;;;;;;10.57;8.00;;;;;;;;;;5144139;27;20222;-60
2023/07/24 07:29:33;;;;;;;12.95;8.75;;;;;;;;;;5149022;27;20210;-59
2023/07/24 07:32:00;;;;;;;12.82;9.20;;;;;;;;;;5142844;27;20224;-57
2023/07/24 07:34:26;;;;;;;10.20;8.35;;;;;;;;;;5138597;27;20210;-57
2023/07/24 07:36:52;;;;;;;13.15;8.07;;;;;;;;;;5145350;27;20255;-57
2023/07/24 07:39:19;;;;;;;19.38;8.77;;;;;;;;;;5137981;27;20214;-56
2023/07/24 07:41:45;;;;;;;12.80;8.98;;;;;;;;;;5132677;27;20206;-56
2023/07/24 07:44:13;;;;;;;13.23;8.50;;;;;;;;;;5139450;27;20267;-57
2023/07/24 07:46:39;;;;;;;12.57;8.55;;;;;;;;;;5150144;27;20213;-57
2023/07/24 07:49:05;;;;;;;12.93;8.60;;;;;;;;;;5138959;27;20206;-57
2023/07/24 07:51:31;;;;;;;10.25;8.05;;;;;;;;;;5139821;27;20229;-57
2023/07/24 07:53:58;;;;;;;10.82;9.07;;;;;;;;;;5146406;27;20206;-57
2023/07/24 07:56:24;;;;;;;15.70;8.82;;;;;;;;;;5137981;27;20218;-57
2023/07/24 07:58:50;;;;;;;11.48;8.40;;;;;;;;;;5141895;27;20465;-55
2023/07/24 08:01:18;;;;;;;12.05;8.45;;;;;;;;;;5138320;27;20255;-57
2023/07/24 08:03:44;;;;;;;12.50;8.48;;;;;;;;;;5142253;27;20212;-57
2023/07/24 08:06:11;;;;;;;11.65;8.32;;;;;;;;;;5140189;27;20207;-57
2023/07/24 08:08:37;;;;;;;11.63;8.23;;;;;;;;;;5145149;27;20375;-55
2023/07/24 08:11:04;;;;;;;11.77;7.55;;;;;;;;;;5137201;27;20222;-57
2023/07/24 08:13:31;;;;;;;10.27;7.65;;;;;;;;;;5138031;27;20210;-56
2023/07/24 08:15:57;;;;;;;9.55;7.55;;;;;;;;;;5146475;27;20220;-57
2023/07/24 08:18:25;;;;;;;14.23;7.82;;;;;;;;;;5146002;27;20283;-57
2023/07/24 08:20:51;;;;;;;11.27;8.05;;;;;;;;;;5140864;27;20430;-57
2023/07/24 08:23:17;;;;;;;8.80;7.90;;;;;;;;;;5136622;27;20439;-57
2023/07/24 08:25:51;;;;;;;13.27;8.35;;;;;;;;;;5143186;27;20400;-55
2023/07/24 08:28:17;;;;;;;11.90;7.93;;;;;;;;;;5145228;27;20220;-56
2023/07/24 08:30:44;;;;;;;13.63;8.57;;;;;;;;;;5138994;27;20226;-56
2023/07/24 08:33:10;;;;;;;12.68;7.65;;;;;;;;;;5139397;27;20206;-57
2023/07/24 08:35:37;;;;;;;12.15;8.75;;;;;;;;;;5141155;27;20210;-55
2023/07/24 08:38:04;;;;;;;13.48;7.93;;;;;;;;;;5148405;27;20431;-56
2023/07/24 08:40:30;;;;;;;10.77;7.47;;;;;;;;;;5143003;27;20429;-57
2023/07/24 08:42:57;;;;;;;13.93;7.57;;;;;;;;;;5143287;27;20534;-56
2023/07/24 08:45:24;;;;;;;13.68;7.97;;;;;;;;;;5145207;27;20210;-56
2023/07/24 08:47:50;;;;;;;12.90;7.78;;;;;;;;;;5141584;27;20207;-57
2023/07/24 08:50:17;;;;;;;8.40;6.68;;;;;;;;;;5143244;27;20209;-56
2023/07/24 08:52:46;;;;;;;10.23;7.82;;;;;;;;;;5146016;27;20220;-55
2023/07/24 08:55:13;;;;;;;9.20;7.55;;;;;;;;;;5147494;27;20284;-55
2023/07/24 08:57:39;;;;;;;11.20;7.05;;;;;;;;;;5140347;27;20210;-55
2023/07/24 09:00:06;;;;;;;11.68;7.60;;;;;;;;;;5149192;27;20218;-56
2023/07/24 09:02:33;;;;;;;9.73;7.35;;;;;;;;;;5148930;27;20205;-55
2023/07/24 09:04:59;;;;;;;11.40;7.82;;;;;;;;;;5152048;27;20240;-57
2023/07/24 09:07:26;;;;;;;14.27;8.02;;;;;;;;;;5143197;27;20510;-56
2023/07/24 09:09:53;;;;;;;14.20;8.27;;;;;;;;;;5152660;27;20460;-57
2023/07/24 09:12:20;;;;;;;13.98;8.27;;;;;;;;;;5151950;27;20217;-55
2023/07/24 09:14:46;;;;;;;10.65;7.35;;;;;;;;;;5149099;27;20210;-55
2023/07/24 09:17:13;;;;;;;10.80;7.75;;;;;;;;;;5146175;27;20206;-56
2023/07/24 09:19:39;;;;;;;9.77;7.30;;;;;;;;;;5142588;27;20206;-57
2023/07/24 09:22:09;;;;;;;9.48;6.82;;;;;;;;;;5142826;27;20206;-57
2023/07/24 09:24:35;;;;;;;8.55;6.93;;;;;;;;;;5146560;27;20393;-55
2023/07/24 09:27:05;;;;;;;9.52;6.70;;;;;;;;;;5140799;27;20577;-57
2023/07/24 09:29:32;;;;;;;9.88;6.53;;;;;;;;;;5139936;27;20236;-57
2023/07/24 09:31:58;;;;;;;7.35;6.47;;;;;;;;;;5141608;27;20287;-57
2023/07/24 09:34:25;;;;;;;10.57;6.78;;;;;;;;;;5145122;27;20435;-57
2023/07/24 09:36:51;;;;;;;12.32;6.40;;;;;;;;;;5144598;27;20537;-57
2023/07/24 09:39:23;;;;;;;10.70;6.32;;;;;;;;;;5146416;27;20247;-57
2023/07/24 09:41:50;;;;;;;9.02;6.38;;;;;;;;;;5153694;27;20386;-56
2023/07/24 09:44:17;;;;;;;11.40;7.10;;;;;;;;;;5139414;27;20206;-56
2023/07/24 09:46:44;;;;;;;8.90;7.22;;;;;;;;;;5142693;27;20210;-56
2023/07/24 09:49:10;;;;;;;11.48;7.30;;;;;;;;;;5151802;27;20246;-57
2023/07/24 09:51:37;;;;;;;7.18;6.32;;;;;;;;;;5149741;27;20225;-57
2023/07/24 09:54:07;;;;;;;10.25;6.78;;;;;;;;;;5145257;27;20414;-56
2023/07/24 09:56:34;;;;;;;7.82;6.40;;;;;;;;;;5148672;27;20209;-57
2023/07/24 09:59:01;;;;;;;7.78;6.43;;;;;;;;;;5140886;27;20545;-57
2023/07/24 10:01:29;;;;;;;8.77;7.30;;;;;;;;;;5155025;27;20221;-57
2023/07/24 10:03:56;;;;;;;10.68;7.00;;;;;;;;;;5135340;27;20206;-58
2023/07/24 10:06:22;;;;;;;8.38;6.55;;;;;;;;;;5146402;27;20557;-57
2023/07/24 10:08:49;;;;;;;8.60;6.30;;;;;;;;;;5143293;27;20243;-57
2023/07/24 10:11:15;;;;;;;8.30;7.15;;;;;;;;;;5139675;27;20217;-57
2023/07/24 10:13:42;;;;;;;8.65;6.18;;;;;;;;;;5145443;27;20233;-57
2023/07/24 10:16:08;;;;;;;10.45;6.55;;;;;;;;;;5147451;27;20205;-56
2023/07/24 10:18:36;;;;;;;8.25;6.07;;;;;;;;;;5144283;27;20604;-56
2023/07/24 10:21:03;;;;;;;9.13;6.95;;;;;;;;;;5141071;27;20251;-56
2023/07/24 10:23:29;;;;;;;8.10;6.32;;;;;;;;;;5143258;27;20210;-56
2023/07/24 10:25:55;;;;;;;9.65;6.30;;;;;;;;;;5140674;27;20209;-55
2023/07/24 10:28:31;;;;;;;10.75;6.38;;;;;;;;;;5138341;27;20221;-57
2023/07/24 10:30:57;;;;;;;9.25;6.38;;;;;;;;;;5140105;27;20209;-58
2023/07/24 10:33:24;;;;;;;7.97;6.57;;;;;;;;;;5147537;27;20236;-58
2023/07/24 10:35:54;;;;;;;7.53;6.10;;;;;;;;;;5147668;27;20783;-58
2023/07/24 10:38:20;;;;;;;11.50;7.10;;;;;;;;;;5138623;27;20209;-58
2023/07/24 10:40:48;;;;;;;8.98;6.80;;;;;;;;;;5147204;27;20208;-58
2023/07/24 10:43:18;;;;;;;11.15;7.28;;;;;;;;;;5139993;27;20225;-58
2023/07/24 10:45:47;;;;;;;8.15;6.88;;;;;;;;;;5141344;27;20206;-58
2023/07/24 10:48:14;;;;;;;10.23;7.47;;;;;;;;;;5149118;27;20255;-58
2023/07/24 10:50:41;;;;;;;12.00;7.68;;;;;;;;;;5138592;27;20210;-58
2023/07/24 10:53:08;;;;;;;14.23;7.85;;;;;;;;;;5140056;27;20221;-58
2023/07/24 10:55:35;;;;;;;13.00;7.78;;;;;;;;;;5141548;27;20541;-57
2023/07/24 10:58:01;;;;;;;10.90;8.23;;;;;;;;;;5144530;27;20537;-57
2023/07/24 11:00:27;;;;;;;11.40;7.47;;;;;;;;;;5140086;27;20537;-58
2023/07/24 11:02:54;;;;;;;10.45;6.88;;;;;;;;;;5137905;27;20202;-58
2023/07/24 11:05:21;;;;;;;13.60;6.88;;;;;;;;;;5146381;27;20207;-57
2023/07/24 11:07:47;;;;;;;12.13;7.20;;;;;;;;;;5147852;27;20544;-56
2023/07/24 11:10:18;;;;;;;8.60;6.82;;;;;;;;;;5144168;27;20206;-56
2023/07/24 11:12:45;;;;;;;9.27;6.40;;;;;;;;;;5147152;27;20221;-57
2023/07/24 11:15:12;;;;;;;9.25;6.25;;;;;;;;;;5146783;27;20209;-57
2023/07/24 11:17:40;;;;;;;11.77;6.65;;;;;;;;;;5145819;27;20365;-58
2023/07/24 11:20:07;;;;;;;8.80;6.75;;;;;;;;;;5150679;27;20232;-58
2023/07/24 11:22:33;;;;;;;9.00;6.68;;;;;;;;;;5144933;27;20206;-58
2023/07/24 11:25:01;;;;;;;10.10;7.05;;;;;;;;;;5144330;27;20250;-57
2023/07/24 11:27:28;;;;;;;9.70;6.32;;;;;;;;;;5141480;27;20440;-58
2023/07/24 11:29:55;;;;;;;13.13;7.25;;;;;;;;;;5145811;27;20207;-58
2023/07/24 11:32:21;;;;;;;8.48;6.80;;;;;;;;;;5144202;27;20222;-58
2023/07/24 11:34:47;;;;;;;11.82;7.43;;;;;;;;;;5144403;27;20210;-58
2023/07/24 11:37:14;;;;;;;8.00;7.05;;;;;;;;;;5142844;27;20205;-55
2023/07/24 11:39:40;;;;;;;10.48;6.82;;;;;;;;;;5146242;27;20214;-57
2023/07/24 11:42:07;;;;;;;7.93;7.10;;;;;;;;;;5142839;27;20206;-56
2023/07/24 11:44:34;;;;;;;8.35;7.07;;;;;;;;;;5146264;27;20372;-56
2023/07/24 11:47:01;;;;;;;8.80;6.88;;;;;;;;;;5140429;27;20206;-55
2023/07/24 11:49:30;;;;;;;10.95;7.30;;;;;;;;;;5141156;27;20217;-56
2023/07/24 11:52:00;;;;;;;9.02;6.50;;;;;;;;;;5141831;27;20221;-57
2023/07/24 11:54:26;;;;;;;10.50;6.43;;;;;;;;;;5137094;27;20428;-56
2023/07/24 11:56:52;;;;;;;6.18;5.57;;;;;;;;;;5141912;27;20525;-56
2023/07/24 11:59:18;;;;;;;7.47;6.07;;;;;;;;;;5145801;27;20246;-56
2023/07/24 12:01:48;;;;;;;9.38;6.93;;;;;;;;;;5143046;27;20449;-57
2023/07/24 12:04:15;;;;;;;11.27;6.53;;;;;;;;;;5139633;27;20206;-57
2023/07/24 12:06:41;;;;;;;10.07;6.55;;;;;;;;;;5136489;27;20279;-56
2023/07/24 12:09:07;;;;;;;11.27;7.35;;;;;;;;;;5141729;27;20220;-57
2023/07/24 12:11:34;;;;;;;8.18;6.35;;;;;;;;;;5145870;27;20460;-56
2023/07/24 12:14:00;;;;;;;10.25;6.63;;;;;;;;;;5140302;27;20204;-57
2023/07/24 12:16:28;;;;;;;10.25;6.90;;;;;;;;;;5142216;27;20222;-57
2023/07/24 12:18:56;;;;;;;11.75;7.43;;;;;;;;;;5145516;27;20582;-56
2023/07/24 12:21:22;;;;;;;11.88;7.10;;;;;;;;;;5147049;27;20293;-56
2023/07/24 12:23:48;;;;;;;8.73;6.50;;;;;;;;;;5146038;27;20251;-57
2023/07/24 12:26:15;;;;;;;7.22;6.53;;;;;;;;;;5149886;27;20206;-57
2023/07/24 12:28:41;;;;;;;6.75;6.07;;;;;;;;;;5149508;27;20231;-57
2023/07/24 12:31:07;;;;;;;9.63;6.72;;;;;;;;;;5149611;27;20213;-57
2023/07/24 12:33:33;;;;;;;11.75;6.75;;;;;;;;;;5149232;27;20232;-57
2023/07/24 12:36:01;;;;;;;7.93;7.13;;;;;;;;;;5148737;27;20209;-59
2023/07/24 12:38:27;;;;;;;10.05;6.03;;;;;;;;;;5153467;27;20280;-57
2023/07/24 12:40:54;;;;;;;7.07;6.25;;;;;;;;;;5149749;27;20526;-59
2023/07/24 12:43:20;;;;;;;7.57;6.57;;;;;;;;;;5143400;27;20383;-58
2023/07/24 12:45:46;;;;;;;7.18;6.28;;;;;;;;;;5149111;27;20214;-56
2023/07/24 12:48:12;;;;;;;6.07;5.57;;;;;;;;;;5147751;27;20438;-57
2023/07/24 12:50:38;;;;;;;7.05;6.13;;;;;;;;;;5140604;27;20279;-57
2023/07/24 12:53:06;;;;;;;7.55;5.93;;;;;;;;;;5143845;27;20589;-57
2023/07/24 12:55:32;;;;;;;9.30;6.45;;;;;;;;;;5143538;27;20545;-57
2023/07/24 12:57:59;;;;;;;9.05;6.03;;;;;;;;;;5141817;27;20536;-57
2023/07/24 13:00:25;;;;;;;6.80;6.03;;;;;;;;;;5149633;27;20414;-58
2023/07/24 13:02:51;;;;;;;7.10;5.82;;;;;;;;;;5142428;27;20222;-57
2023/07/24 13:05:17;;;;;;;8.07;5.90;;;;;;;;;;5143162;27;20254;-55
2023/07/24 13:07:45;;;;;;;7.70;5.32;;;;;;;;;;5149604;27;20251;-57
2023/07/24 13:10:13;;;;;;;5.90;5.32;;;;;;;;;;5152887;27;20206;-58
2023/07/24 13:12:39;;;;;;;7.72;5.93;;;;;;;;;;5154357;27;20229;-56
2023/07/24 13:15:06;;;;;;;7.07;5.43;;;;;;;;;;5147951;27;20210;-58
2023/07/24 13:17:32;;;;;;;6.97;5.65;;;;;;;;;;5145540;27;20412;-58
2023/07/24 13:19:58;;;;;;;5.38;4.85;;;;;;;;;;5148650;27;20454;-56
2023/07/24 13:22:25;;;;;;;8.07;5.90;;;;;;;;;;5141890;27;20206;-57
2023/07/24 13:24:51;;;;;;;5.55;5.03;;;;;;;;;;5148398;27;20224;-57
2023/07/24 13:27:19;;;;;;;6.30;4.97;;;;;;;;;;5142016;27;20229;-57
2023/07/24 13:29:45;;;;;;;5.78;5.10;;;;;;;;;;5140000;27;20458;-55
2023/07/24 13:32:11;;;;;;;6.75;5.47;;;;;;;;;;5151836;27;20294;-58
2023/07/24 13:34:38;;;;;;;6.72;5.05;;;;;;;;;;5151028;27;20421;-57
2023/07/24 13:37:04;;;;;;;8.05;4.93;;;;;;;;;;5142474;27;20371;-58
2023/07/24 13:39:31;;;;;;;6.47;5.03;;;;;;;;;;5144396;27;20564;-57
2023/07/24 13:41:57;;;;;;;5.50;5.00;;;;;;;;;;5150486;27;20239;-58
2023/07/24 13:44:25;;;;;;;5.38;4.95;;;;;;;;;;5149338;27;20484;-57
2023/07/24 13:46:51;;;;;;;4.75;4.25;;;;;;;;;;5148040;27;20255;-57
2023/07/24 13:49:17;;;;;;;5.40;4.43;;;;;;;;;;5145168;27;20259;-58
2023/07/24 13:51:43;;;;;;;7.18;4.68;;;;;;;;;;5147217;27;20217;-58
2023/07/24 13:54:10;;;;;;;5.47;5.03;;;;;;;;;;5139111;27;20408;-58
2023/07/24 13:56:36;;;;;;;5.03;4.50;;;;;;;;;;5147333;27;20324;-58
2023/07/24 13:59:03;;;;;;;6.35;4.72;;;;;;;;;;5147752;27;20262;-58
2023/07/24 14:01:30;;;;;;;5.00;4.60;;;;;;;;;;5147562;27;20210;-56
2023/07/24 14:03:56;;;;;;;4.60;4.30;;;;;;;;;;5138989;27;20202;-56
2023/07/24 14:06:23;;;;;;;4.82;4.40;;;;;;;;;;5147734;27;20251;-55
2023/07/24 14:08:49;;;;;;;6.18;4.35;;;;;;;;;;5148668;27;20218;-58
2023/07/24 14:11:15;;;;;;;5.10;4.65;;;;;;;;;;5144436;27;20205;-57
2023/07/24 14:13:41;;;;;;;6.15;4.10;;;;;;;;;;5147616;27;20217;-58
2023/07/24 14:16:08;;;;;;;4.53;4.22;;;;;;;;;;5140064;27;20210;-57
2023/07/24 14:18:35;;;;;;;4.47;4.07;;;;;;;;;;5147305;27;20210;-58
2023/07/24 14:21:01;;;;;;;5.32;4.38;;;;;;;;;;5150058;27;20214;-57
2023/07/24 14:23:28;;;;;;;6.40;4.43;;;;;;;;;;5141364;27;20205;-58
2023/07/24 14:25:54;;;;;;;4.88;4.30;;;;;;;;;;5147581;27;20213;-58
2023/07/24 14:28:20;;;;;;;5.30;4.22;;;;;;;;;;5140893;27;20553;-56
2023/07/24 14:30:46;;;;;;;4.85;4.25;;;;;;;;;;5147090;27;20552;-57
2023/07/24 14:33:13;;;;;;;4.30;3.70;;;;;;;;;;5142986;27;20279;-58